createdAt,value
2018-09-11T00:01:46.381Z,18.38
2018-09-11T00:04:15.434Z,18.28
2018-09-11T00:06:44.600Z,18.28
2018-09-11T00:09:14.153Z,18.25
2018-09-11T00:11:44.182Z,18.31
2018-09-11T00:14:13.297Z,18.34
2018-09-11T00:16:42.390Z,18.26
2018-09-11T00:19:11.557Z,18.06
2018-09-11T00:21:40.705Z,18.12
2018-09-11T00:24:09.796Z,18.12
2018-09-11T00:26:38.996Z,18.09
2018-09-11T00:29:08.096Z,18.04
2018-09-11T00:31:37.296Z,18.03
2018-09-11T00:34:06.476Z,18.06
2018-09-11T00:36:35.588Z,17.98
2018-09-11T00:39:05.712Z,18.14
2018-09-11T00:41:34.853Z,18.17
2018-09-11T00:44:03.988Z,18.15
2018-09-11T00:46:33.336Z,18.25
2018-09-11T00:49:02.502Z,18.13
2018-09-11T00:51:31.696Z,18.17
2018-09-11T00:54:00.874Z,18.14
2018-09-11T00:56:30.086Z,18.18
2018-09-11T00:58:59.290Z,18.18
2018-09-11T01:01:28.467Z,18.19
2018-09-11T01:03:57.633Z,18.16
2018-09-11T01:06:26.781Z,18.17
2018-09-11T01:08:56.010Z,18.18
2018-09-11T01:11:25.168Z,18.13
2018-09-11T01:13:54.327Z,18.08
2018-09-11T01:16:23.411Z,18.09
2018-09-11T01:18:52.559Z,18.11
2018-09-11T01:21:21.673Z,17.98
2018-09-11T01:23:50.789Z,17.99
2018-09-11T01:26:19.949Z,17.94
2018-09-11T01:28:49.795Z,17.91
2018-09-11T01:31:18.974Z,18.04
2018-09-11T01:33:48.037Z,17.97
2018-09-11T01:36:17.160Z,17.97
2018-09-11T01:38:46.248Z,17.90
2018-09-11T01:41:15.353Z,17.85
2018-09-11T01:43:44.448Z,17.83
2018-09-11T01:46:13.646Z,17.78
2018-09-11T01:48:42.825Z,17.74
2018-09-11T01:51:11.932Z,17.79
2018-09-11T01:53:41.021Z,17.75
2018-09-11T01:56:10.197Z,17.72
2018-09-11T01:58:39.409Z,17.67
2018-09-11T02:01:08.497Z,17.74
2018-09-11T02:03:37.625Z,17.71
2018-09-11T02:06:06.717Z,17.63
2018-09-11T02:08:35.824Z,17.50
2018-09-11T02:11:05.782Z,17.50
2018-09-11T02:13:34.907Z,17.48
2018-09-11T02:16:04.177Z,17.56
2018-09-11T02:18:33.313Z,17.44
2018-09-11T02:21:02.531Z,17.42
2018-09-11T02:23:31.645Z,17.46
2018-09-11T02:26:00.729Z,17.43
2018-09-11T02:28:29.822Z,17.40
2018-09-11T02:30:58.917Z,17.48
2018-09-11T02:33:28.003Z,17.37
2018-09-11T02:35:57.310Z,17.28
2018-09-11T02:38:26.568Z,17.32
2018-09-11T02:40:55.644Z,17.12
2018-09-11T02:43:24.778Z,17.09
2018-09-11T02:45:53.957Z,17.11
2018-09-11T02:48:23.031Z,16.95
2018-09-11T02:50:52.156Z,17.02
2018-09-11T02:53:21.353Z,16.95
2018-09-11T02:55:50.483Z,16.80
2018-09-11T02:58:19.568Z,16.71
2018-09-11T03:00:48.745Z,16.81
2018-09-11T03:03:17.930Z,16.58
2018-09-11T03:05:47.166Z,16.48
2018-09-11T03:08:16.333Z,16.43
2018-09-11T03:10:45.415Z,16.40
2018-09-11T03:13:14.533Z,16.37
2018-09-11T03:15:43.685Z,16.27
2018-09-11T03:18:12.789Z,16.26
2018-09-11T03:20:41.905Z,16.31
2018-09-11T03:23:10.972Z,16.47
2018-09-11T03:25:40.096Z,16.43
2018-09-11T03:28:09.213Z,16.48
2018-09-11T03:30:38.372Z,16.29
2018-09-11T03:33:07.500Z,16.36
2018-09-11T03:35:36.730Z,16.16
2018-09-11T03:38:06.182Z,16.15
2018-09-11T03:40:35.421Z,16.21
2018-09-11T03:43:04.516Z,16.12
2018-09-11T03:45:33.621Z,16.19
2018-09-11T03:48:02.754Z,16.22
2018-09-11T03:50:31.948Z,16.27
2018-09-11T03:53:01.074Z,16.21
2018-09-11T03:55:30.272Z,16.16
2018-09-11T03:57:59.588Z,16.22
2018-09-11T04:00:28.758Z,16.15
2018-09-11T04:02:57.944Z,16.22
2018-09-11T04:05:27.221Z,16.40
2018-09-11T04:07:56.352Z,16.28
2018-09-11T04:10:25.604Z,16.31
2018-09-11T04:12:54.693Z,16.32
2018-09-11T04:15:23.780Z,16.25
2018-09-11T04:17:52.955Z,16.20
2018-09-11T04:20:22.077Z,16.16
2018-09-11T04:22:51.149Z,16.17
2018-09-11T04:25:20.277Z,16.19
2018-09-11T04:27:49.535Z,16.23
2018-09-11T04:30:18.716Z,16.09
2018-09-11T04:32:47.897Z,16.27
2018-09-11T04:35:17.069Z,16.19
2018-09-11T04:37:46.165Z,16.08
2018-09-11T04:40:15.365Z,15.96
2018-09-11T04:42:44.501Z,16.02
2018-09-11T04:45:13.697Z,15.96
2018-09-11T04:47:42.815Z,15.99
2018-09-11T04:50:12.217Z,16.15
2018-09-11T04:52:41.420Z,16.05
2018-09-11T04:55:10.524Z,15.98
2018-09-11T04:57:39.668Z,15.81
2018-09-11T05:00:08.836Z,15.90
2018-09-11T05:02:38.008Z,15.82
2018-09-11T05:05:07.232Z,15.89
2018-09-11T05:07:36.501Z,15.84
2018-09-11T05:10:05.876Z,15.89
2018-09-11T05:12:35.076Z,15.85
2018-09-11T05:15:04.368Z,15.85
2018-09-11T05:17:33.828Z,15.83
2018-09-11T05:20:02.966Z,15.79
2018-09-11T05:22:32.162Z,15.75
2018-09-11T05:25:01.273Z,15.78
2018-09-11T05:27:30.477Z,15.73
2018-09-11T05:29:59.746Z,15.76
2018-09-11T05:32:28.974Z,15.72
2018-09-11T05:34:58.064Z,15.75
2018-09-11T05:37:27.230Z,15.74
2018-09-11T05:39:56.466Z,15.74
2018-09-11T05:42:25.909Z,15.71
2018-09-11T05:44:55.164Z,15.75
2018-09-11T05:47:24.363Z,15.70
2018-09-11T05:49:53.559Z,15.75
2018-09-11T05:52:22.723Z,15.85
2018-09-11T05:54:51.873Z,15.91
2018-09-11T05:57:21.056Z,16.04
2018-09-11T05:59:50.868Z,16.17
2018-09-11T06:02:19.967Z,16.26
2018-09-11T06:04:49.115Z,16.43
2018-09-11T06:07:18.379Z,16.51
2018-09-11T06:09:47.545Z,16.65
2018-09-11T06:12:16.726Z,16.71
2018-09-11T06:14:45.916Z,16.80
2018-09-11T06:17:15.242Z,16.90
2018-09-11T06:19:44.456Z,16.98
2018-09-11T06:22:13.537Z,17.05
2018-09-11T06:24:42.785Z,17.17
2018-09-11T06:27:11.924Z,17.24
2018-09-11T06:29:41.204Z,17.35
2018-09-11T06:32:10.318Z,17.45
2018-09-11T06:34:39.419Z,17.55
2018-09-11T06:37:08.518Z,17.65
2018-09-11T06:39:37.706Z,17.76
2018-09-11T06:42:06.940Z,17.80
2018-09-11T06:44:36.117Z,17.92
2018-09-11T06:47:05.211Z,17.95
2018-09-11T06:49:34.300Z,17.95
2018-09-11T06:52:03.569Z,18.16
2018-09-11T06:54:32.710Z,18.12
2018-09-11T06:57:01.887Z,18.18
2018-09-11T06:59:30.975Z,18.28
2018-09-11T07:02:00.215Z,18.31
2018-09-11T07:04:29.275Z,18.33
2018-09-11T07:06:58.470Z,18.47
2018-09-11T07:09:27.571Z,18.51
2018-09-11T07:11:56.681Z,18.42
2018-09-11T07:14:25.841Z,18.54
2018-09-11T07:16:54.945Z,18.57
2018-09-11T07:19:24.555Z,18.76
2018-09-11T07:21:53.693Z,18.84
2018-09-11T07:24:22.925Z,18.82
2018-09-11T07:26:52.064Z,18.87
2018-09-11T07:29:21.175Z,18.88
2018-09-11T07:31:50.267Z,18.98
2018-09-11T07:34:19.453Z,19.07
2018-09-11T07:36:48.643Z,19.04
2018-09-11T07:39:17.817Z,19.07
2018-09-11T07:41:46.901Z,19.25
2018-09-11T07:44:16.181Z,19.30
2018-09-11T07:46:45.409Z,19.19
2018-09-11T07:49:14.485Z,19.25
2018-09-11T07:51:43.579Z,19.36
2018-09-11T07:54:12.696Z,19.45
2018-09-11T07:56:41.785Z,19.51
2018-09-11T07:59:10.915Z,19.63
2018-09-11T08:01:40.004Z,19.65
2018-09-11T08:04:09.215Z,19.64
2018-09-11T08:06:38.392Z,19.67
2018-09-11T08:09:10.737Z,19.82
2018-09-11T08:11:39.889Z,19.79
2018-09-11T08:14:09.513Z,19.82
2018-09-11T08:16:38.748Z,19.84
2018-09-11T08:19:07.856Z,20.06
2018-09-11T08:21:37.074Z,20.06
2018-09-11T08:24:06.505Z,20.08
2018-09-11T08:26:35.760Z,20.30
2018-09-11T08:29:04.886Z,20.34
2018-09-11T08:31:34.061Z,20.36
2018-09-11T08:34:03.310Z,20.44
2018-09-11T08:36:32.458Z,20.52
2018-09-11T08:39:01.835Z,20.53
2018-09-11T08:41:30.892Z,20.69
2018-09-11T08:44:00.059Z,20.68
2018-09-11T08:46:29.194Z,20.84
2018-09-11T08:48:58.335Z,20.83
2018-09-11T08:51:27.421Z,21.05
2018-09-11T08:53:56.612Z,20.85
2018-09-11T08:56:25.820Z,20.88
2018-09-11T08:58:54.924Z,21.05
2018-09-11T09:01:24.021Z,21.07
2018-09-11T09:03:53.144Z,21.12
2018-09-11T09:06:22.254Z,21.10
2018-09-11T09:08:51.424Z,21.14
2018-09-11T09:11:20.548Z,21.19
2018-09-11T09:13:49.664Z,21.38
2018-09-11T09:16:19.188Z,21.28
2018-09-11T09:18:48.514Z,21.30
2018-09-11T09:21:17.721Z,21.35
2018-09-11T09:23:46.853Z,21.35
2018-09-11T09:26:16.000Z,21.41
2018-09-11T09:28:45.116Z,21.57
2018-09-11T09:31:14.299Z,21.50
2018-09-11T09:33:43.590Z,21.51
2018-09-11T09:36:12.697Z,21.67
2018-09-11T09:38:41.853Z,21.79
2018-09-11T09:41:10.953Z,21.77
2018-09-11T09:43:40.085Z,21.77
2018-09-11T09:46:09.313Z,21.94
2018-09-11T09:48:38.497Z,22.03
2018-09-11T09:51:07.670Z,21.83
2018-09-11T09:53:36.777Z,22.01
2018-09-11T09:56:05.962Z,22.16
2018-09-11T09:58:35.168Z,22.21
2018-09-11T10:01:09.661Z,22.22
2018-09-11T10:03:38.776Z,22.36
2018-09-11T10:06:08.040Z,22.49
2018-09-11T10:08:37.264Z,22.43
2018-09-11T10:11:06.605Z,22.47
2018-09-11T10:13:35.806Z,22.55
2018-09-11T10:16:04.916Z,22.81
2018-09-11T10:18:34.051Z,22.68
2018-09-11T10:21:03.184Z,22.73
2018-09-11T10:23:32.293Z,22.57
2018-09-11T10:26:01.560Z,22.75
2018-09-11T10:28:30.647Z,22.85
2018-09-11T10:30:59.768Z,22.79
2018-09-11T10:33:28.918Z,22.82
2018-09-11T10:35:58.045Z,22.87
2018-09-11T10:38:27.312Z,23.08
2018-09-11T10:40:56.372Z,23.21
2018-09-11T10:43:25.512Z,23.19
2018-09-11T10:45:54.646Z,23.17
2018-09-11T10:48:23.802Z,23.22
2018-09-11T10:50:52.914Z,23.39
2018-09-11T10:53:22.194Z,23.53
2018-09-11T10:55:51.390Z,23.87
2018-09-11T10:58:20.538Z,23.77
2018-09-11T11:00:49.974Z,23.91
2018-09-11T11:03:19.064Z,23.83
2018-09-11T11:05:48.220Z,23.89
2018-09-11T11:08:17.376Z,23.95
2018-09-11T11:10:46.462Z,24.36
2018-09-11T11:13:15.694Z,24.61
2018-09-11T11:15:44.898Z,24.41
2018-09-11T11:18:13.999Z,24.79
2018-09-11T11:20:43.098Z,24.68
2018-09-11T11:23:12.296Z,24.84
2018-09-11T11:25:41.556Z,24.74
2018-09-11T11:28:10.685Z,25.07
2018-09-11T11:30:39.781Z,24.94
2018-09-11T11:33:08.947Z,25.06
2018-09-11T11:35:38.062Z,25.26
2018-09-11T11:38:07.163Z,25.22
2018-09-11T11:40:36.350Z,25.49
2018-09-11T11:43:05.509Z,25.77
2018-09-11T11:45:34.669Z,25.90
2018-09-11T11:48:03.915Z,26.22
2018-09-11T11:50:33.049Z,26.84
2018-09-11T11:53:02.274Z,27.51
2018-09-11T11:55:31.515Z,27.80
2018-09-11T11:58:00.553Z,27.88
2018-09-11T12:00:29.759Z,28.48
2018-09-11T12:02:58.919Z,28.86
2018-09-11T12:05:28.037Z,28.67
2018-09-11T12:07:57.219Z,28.17
2018-09-11T12:10:26.307Z,27.93
2018-09-11T12:12:55.492Z,28.64
2018-09-11T12:15:24.612Z,28.74
2018-09-11T12:17:53.740Z,29.55
2018-09-11T12:20:22.901Z,29.78
2018-09-11T12:22:52.214Z,30.93
2018-09-11T12:25:21.643Z,30.61
2018-09-11T12:27:50.798Z,30.11
2018-09-11T12:30:20.107Z,30.38
2018-09-11T12:32:49.384Z,31.45
2018-09-11T12:35:18.492Z,30.88
2018-09-11T12:37:47.693Z,30.99
2018-09-11T12:40:16.972Z,30.08
2018-09-11T12:42:46.084Z,29.52
2018-09-11T12:45:15.222Z,30.42
2018-09-11T12:47:44.848Z,31.29
2018-09-11T12:50:13.568Z,31.67
2018-09-11T12:52:42.765Z,31.72
2018-09-11T12:55:12.008Z,30.56
2018-09-11T12:57:47.717Z,31.43
2018-09-11T13:00:17.127Z,31.92
2018-09-11T13:02:46.213Z,30.51
2018-09-11T13:05:15.349Z,31.32
2018-09-11T13:07:44.417Z,31.59
2018-09-11T13:10:13.613Z,32.06
2018-09-11T13:12:43.323Z,31.91
2018-09-11T13:15:12.720Z,31.12
2018-09-11T13:17:41.813Z,30.68
2018-09-11T13:20:10.955Z,30.12
2018-09-11T13:22:40.073Z,31.23
2018-09-11T13:25:09.282Z,31.47
2018-09-11T13:27:38.408Z,32.28
2018-09-11T13:30:07.524Z,32.77
2018-09-11T13:32:36.591Z,32.95
2018-09-11T13:35:05.697Z,32.62
2018-09-11T13:37:34.813Z,33.58
2018-09-11T13:40:03.980Z,33.45
2018-09-11T13:42:33.099Z,33.03
2018-09-11T13:45:02.270Z,32.10
2018-09-11T13:47:31.430Z,30.26
2018-09-11T13:50:01.318Z,32.55
2018-09-11T13:52:30.467Z,31.22
2018-09-11T13:54:59.657Z,32.21
2018-09-11T13:57:29.032Z,33.08
2018-09-11T13:59:58.200Z,33.72
2018-09-11T14:02:27.301Z,32.35
2018-09-11T14:04:56.385Z,32.76
2018-09-11T14:07:25.541Z,34.25
2018-09-11T14:09:54.637Z,32.07
2018-09-11T14:12:23.727Z,33.75
2018-09-11T14:14:52.821Z,33.86
2018-09-11T14:17:21.959Z,32.11
2018-09-11T14:19:51.145Z,33.50
2018-09-11T14:22:20.317Z,33.98
2018-09-11T14:24:49.483Z,33.98
2018-09-11T14:27:18.648Z,33.51
2018-09-11T14:29:47.820Z,34.20
2018-09-11T14:32:16.920Z,34.08
2018-09-11T14:34:46.225Z,33.86
2018-09-11T14:37:15.329Z,33.20
2018-09-11T14:39:44.596Z,33.60
2018-09-11T14:42:13.732Z,33.58
2018-09-11T14:44:42.926Z,33.72
2018-09-11T14:47:12.104Z,34.69
2018-09-11T14:49:41.214Z,35.27
2018-09-11T14:52:10.412Z,34.72
2018-09-11T14:54:39.662Z,34.69
2018-09-11T14:57:08.788Z,34.65
2018-09-11T14:59:37.884Z,34.56
2018-09-11T15:02:06.986Z,34.57
2018-09-11T15:04:36.095Z,34.22
2018-09-11T15:07:05.375Z,34.62
2018-09-11T15:09:34.469Z,34.61
2018-09-11T15:12:03.653Z,33.79
2018-09-11T15:14:32.760Z,33.18
2018-09-11T15:17:01.869Z,33.65
2018-09-11T15:19:30.989Z,32.54
2018-09-11T15:22:00.093Z,32.39
2018-09-11T15:24:29.201Z,33.26
2018-09-11T15:26:58.357Z,33.57
2018-09-11T15:29:27.527Z,32.89
2018-09-11T15:31:56.643Z,32.11
2018-09-11T15:34:25.749Z,32.78
2018-09-11T15:36:54.937Z,32.73
2018-09-11T15:39:24.017Z,32.25
2018-09-11T15:41:53.170Z,33.49
2018-09-11T15:44:22.238Z,33.15
2018-09-11T15:46:51.515Z,31.87
2018-09-11T15:49:20.595Z,31.93
2018-09-11T15:51:49.672Z,32.51
2018-09-11T15:54:18.768Z,31.42
2018-09-11T15:56:47.872Z,32.43
2018-09-11T15:59:17.240Z,31.91
2018-09-11T16:01:46.536Z,31.32
2018-09-11T16:04:15.657Z,30.81
2018-09-11T16:06:44.796Z,30.49
2018-09-11T16:09:14.022Z,31.14
2018-09-11T16:11:43.113Z,30.74
2018-09-11T16:14:12.288Z,31.35
2018-09-11T16:16:41.487Z,31.32
2018-09-11T16:19:10.700Z,31.89
2018-09-11T16:21:39.956Z,31.34
2018-09-11T16:24:09.076Z,30.30
2018-09-11T16:26:38.262Z,29.90
2018-09-11T16:29:07.356Z,29.32
2018-09-11T16:31:36.566Z,28.85
2018-09-11T16:34:05.684Z,28.89
2018-09-11T16:36:34.833Z,28.73
2018-09-11T16:39:05.434Z,28.30
2018-09-11T16:41:34.662Z,27.88
2018-09-11T16:44:03.925Z,27.75
2018-09-11T16:46:33.141Z,27.64
2018-09-11T16:49:02.290Z,27.34
2018-09-11T16:51:31.392Z,27.22
2018-09-11T16:54:00.503Z,27.08
2018-09-11T16:56:29.669Z,27.05
2018-09-11T16:58:58.777Z,26.65
2018-09-11T17:01:27.933Z,26.77
2018-09-11T17:03:57.069Z,26.59
2018-09-11T17:06:27.321Z,26.41
2018-09-11T17:08:56.413Z,26.07
2018-09-11T17:11:25.573Z,26.03
2018-09-11T17:13:54.803Z,25.90
2018-09-11T17:16:23.957Z,25.70
2018-09-11T17:18:53.057Z,25.62
2018-09-11T17:21:22.233Z,25.46
2018-09-11T17:23:51.429Z,25.41
2018-09-11T17:26:20.558Z,25.23
2018-09-11T17:28:49.661Z,25.14
2018-09-11T17:31:18.821Z,25.15
2018-09-11T17:33:48.283Z,24.90
2018-09-11T17:36:17.446Z,24.76
2018-09-11T17:38:46.590Z,24.63
2018-09-11T17:41:15.815Z,24.44
2018-09-11T17:43:44.920Z,24.30
2018-09-11T17:46:14.048Z,24.24
2018-09-11T17:48:43.334Z,24.04
2018-09-11T17:51:12.483Z,23.74
2018-09-11T17:53:41.621Z,23.69
2018-09-11T17:56:10.783Z,23.73
2018-09-11T17:58:39.847Z,23.69
2018-09-11T18:01:08.908Z,23.62
2018-09-11T18:03:38.131Z,23.31
2018-09-11T18:06:07.756Z,23.30
2018-09-11T18:08:36.883Z,23.22
2018-09-11T18:11:09.014Z,23.13
2018-09-11T18:13:38.175Z,22.79
2018-09-11T18:16:07.413Z,22.50
2018-09-11T18:18:37.489Z,22.38
2018-09-11T18:21:06.603Z,22.31
2018-09-11T18:23:35.773Z,22.39
2018-09-11T18:26:04.915Z,22.37
2018-09-11T18:28:33.983Z,22.37
2018-09-11T18:31:03.164Z,22.38
2018-09-11T18:33:32.269Z,22.25
2018-09-11T18:36:01.456Z,22.06
2018-09-11T18:38:30.606Z,21.99
2018-09-11T18:40:59.704Z,22.08
2018-09-11T18:43:28.849Z,21.99
2018-09-11T18:45:58.036Z,22.10
2018-09-11T18:48:27.141Z,21.94
2018-09-11T18:50:56.261Z,21.75
2018-09-11T18:53:25.374Z,21.81
2018-09-11T18:55:54.709Z,21.82
2018-09-11T18:58:23.793Z,21.61
2018-09-11T19:00:53.001Z,21.48
2018-09-11T19:03:22.106Z,21.36
2018-09-11T19:05:51.209Z,21.21
2018-09-11T19:08:20.318Z,21.30
2018-09-11T19:10:49.618Z,21.47
2018-09-11T19:13:18.946Z,21.40
2018-09-11T19:15:48.125Z,21.32
2018-09-11T19:18:17.281Z,21.30
2018-09-11T19:20:47.399Z,21.45
2018-09-11T19:23:16.553Z,21.21
2018-09-11T19:25:45.670Z,21.23
2018-09-11T19:28:14.801Z,21.19
2018-09-11T19:30:43.913Z,20.90
2018-09-11T19:33:13.105Z,20.89
2018-09-11T19:35:42.321Z,20.90
2018-09-11T19:38:11.437Z,21.01
2018-09-11T19:40:40.717Z,21.03
2018-09-11T19:43:10.006Z,21.18
2018-09-11T19:45:39.434Z,20.84
2018-09-11T19:48:08.609Z,20.58
2018-09-11T19:50:38.017Z,20.57
2018-09-11T19:53:06.999Z,20.70
2018-09-11T19:55:36.128Z,20.82
2018-09-11T19:58:05.266Z,20.79
2018-09-11T20:00:34.984Z,20.44
2018-09-11T20:03:04.200Z,20.48
2018-09-11T20:05:33.390Z,20.32
2018-09-11T20:08:02.565Z,20.38
2018-09-11T20:10:31.670Z,20.41
2018-09-11T20:13:00.805Z,20.35
2018-09-11T20:15:29.977Z,20.19
2018-09-11T20:17:59.149Z,20.10
2018-09-11T20:20:28.261Z,20.03
2018-09-11T20:22:57.363Z,19.98
2018-09-11T20:25:26.585Z,19.91
2018-09-11T20:27:55.692Z,19.97
2018-09-11T20:30:24.846Z,19.95
2018-09-11T20:32:53.997Z,19.78
2018-09-11T20:35:23.142Z,19.79
2018-09-11T20:37:52.910Z,19.77
2018-09-11T20:40:22.108Z,19.68
2018-09-11T20:42:51.238Z,19.66
2018-09-11T20:45:20.434Z,19.75
2018-09-11T20:47:49.561Z,19.82
2018-09-11T20:50:18.705Z,19.69
2018-09-11T20:52:47.831Z,19.72
2018-09-11T20:55:16.947Z,19.49
2018-09-11T20:57:46.113Z,19.58
2018-09-11T21:00:15.233Z,19.31
2018-09-11T21:02:44.442Z,19.36
2018-09-11T21:05:13.682Z,19.45
2018-09-11T21:07:42.841Z,19.52
2018-09-11T21:10:12.029Z,19.36
2018-09-11T21:12:41.133Z,19.24
2018-09-11T21:15:10.447Z,18.95
2018-09-11T21:17:39.687Z,18.86
2018-09-11T21:20:08.797Z,18.80
2018-09-11T21:22:38.317Z,19.00
2018-09-11T21:25:14.140Z,19.04
2018-09-11T21:27:43.269Z,18.99
2018-09-11T21:30:12.507Z,18.87
2018-09-11T21:32:41.658Z,18.59
2018-09-11T21:35:10.830Z,18.45
2018-09-11T21:37:40.015Z,18.40
2018-09-11T21:40:09.189Z,18.58
2018-09-11T21:42:38.352Z,18.36
2018-09-11T21:45:07.467Z,18.27
2018-09-11T21:47:36.644Z,18.21
2018-09-11T21:50:05.767Z,18.22
2018-09-11T21:52:34.863Z,18.30
2018-09-11T21:55:04.033Z,18.27
2018-09-11T21:57:33.760Z,18.51
2018-09-11T22:00:03.002Z,18.50
2018-09-11T22:02:32.205Z,18.41
2018-09-11T22:05:01.329Z,18.33
2018-09-11T22:07:30.516Z,18.20
2018-09-11T22:09:59.696Z,18.20
2018-09-11T22:12:28.808Z,18.17
2018-09-11T22:14:57.920Z,18.18
2018-09-11T22:17:27.032Z,18.17
2018-09-11T22:19:56.138Z,18.19
2018-09-11T22:22:25.304Z,18.22
2018-09-11T22:24:54.570Z,18.41
2018-09-11T22:27:23.770Z,18.32
2018-09-11T22:29:52.857Z,18.22
2018-09-11T22:32:22.017Z,18.15
2018-09-11T22:34:51.179Z,18.13
2018-09-11T22:37:20.293Z,17.97
2018-09-11T22:39:49.429Z,18.07
2018-09-11T22:42:18.522Z,18.11
2018-09-11T22:44:47.651Z,18.03
2018-09-11T22:47:16.769Z,17.91
2018-09-11T22:49:45.969Z,17.86
2018-09-11T22:52:15.155Z,17.95
2018-09-11T22:54:44.367Z,17.99
2018-09-11T22:57:13.457Z,18.01
2018-09-11T22:59:42.798Z,17.94
2018-09-11T23:02:11.953Z,17.88
2018-09-11T23:04:41.291Z,17.91
2018-09-11T23:07:10.433Z,17.87
2018-09-11T23:09:39.571Z,17.97
2018-09-11T23:12:08.664Z,17.82
2018-09-11T23:14:37.910Z,17.84
2018-09-11T23:17:07.073Z,17.89
2018-09-11T23:19:36.145Z,17.81
2018-09-11T23:22:05.403Z,17.78
2018-09-11T23:24:34.664Z,17.66
2018-09-11T23:27:03.788Z,17.52
2018-09-11T23:29:32.904Z,17.69
2018-09-11T23:32:02.022Z,17.61
2018-09-11T23:34:31.141Z,17.55
2018-09-11T23:37:00.244Z,17.58
2018-09-11T23:39:29.398Z,17.59
2018-09-11T23:41:58.610Z,17.54
2018-09-11T23:44:27.808Z,17.49
2018-09-11T23:46:57.333Z,17.37
2018-09-11T23:49:26.466Z,17.29
2018-09-11T23:51:55.566Z,17.34
2018-09-11T23:54:24.704Z,17.38
2018-09-11T23:56:54.025Z,17.49
2018-09-11T23:59:23.399Z,17.42
